sensor_id;sensor_type;location;lat;lon;timestamp;P1;durP1;ratioP1;P2;durP2;ratioP2
39502;SDS011;26970;49.900;10.774;2022-08-16T00:02:01;7.43;;;2.40;;
39502;SDS011;26970;49.900;10.774;2022-08-16T00:04:28;4.20;;;2.40;;
39502;SDS011;26970;49.900;10.774;2022-08-16T00:06:54;4.10;;;2.63;;
39502;SDS011;26970;49.900;10.774;2022-08-16T00:09:20;4.38;;;2.63;;
39502;SDS011;26970;49.900;10.774;2022-08-16T00:11:46;4.40;;;2.40;;
39502;SDS011;26970;49.900;10.774;2022-08-16T00:14:13;4.25;;;2.45;;
39502;SDS011;26970;49.900;10.774;2022-08-16T00:16:41;4.45;;;2.33;;
39502;SDS011;26970;49.900;10.774;2022-08-16T00:19:07;5.93;;;2.65;;
39502;SDS011;26970;49.900;10.774;2022-08-16T00:21:32;6.50;;;2.40;;
39502;SDS011;26970;49.900;10.774;2022-08-16T00:23:59;4.72;;;2.38;;
39502;SDS011;26970;49.900;10.774;2022-08-16T00:26:25;4.15;;;2.55;;
39502;SDS011;26970;49.900;10.774;2022-08-16T00:28:51;4.90;;;2.50;;
39502;SDS011;26970;49.900;10.774;2022-08-16T00:31:16;5.85;;;2.55;;
39502;SDS011;26970;49.900;10.774;2022-08-16T00:33:42;5.75;;;2.78;;
39502;SDS011;26970;49.900;10.774;2022-08-16T00:36:07;5.80;;;2.47;;
39502;SDS011;26970;49.900;10.774;2022-08-16T00:38:33;6.70;;;3.05;;
39502;SDS011;26970;49.900;10.774;2022-08-16T00:40:59;4.53;;;2.42;;
39502;SDS011;26970;49.900;10.774;2022-08-16T00:43:28;5.07;;;2.88;;
39502;SDS011;26970;49.900;10.774;2022-08-16T00:46:08;4.88;;;3.05;;
39502;SDS011;26970;49.900;10.774;2022-08-16T00:48:39;5.65;;;3.50;;
39502;SDS011;26970;49.900;10.774;2022-08-16T00:51:05;5.38;;;3.50;;
39502;SDS011;26970;49.900;10.774;2022-08-16T00:53:32;4.45;;;2.92;;
39502;SDS011;26970;49.900;10.774;2022-08-16T00:55:59;6.78;;;3.13;;
39502;SDS011;26970;49.900;10.774;2022-08-16T00:58:28;5.30;;;3.15;;
39502;SDS011;26970;49.900;10.774;2022-08-16T01:00:55;3.65;;;2.70;;
39502;SDS011;26970;49.900;10.774;2022-08-16T01:03:22;6.30;;;3.05;;
39502;SDS011;26970;49.900;10.774;2022-08-16T01:05:50;6.60;;;3.40;;
39502;SDS011;26970;49.900;10.774;2022-08-16T01:08:17;5.88;;;3.67;;
39502;SDS011;26970;49.900;10.774;2022-08-16T01:10:44;7.43;;;3.67;;
39502;SDS011;26970;49.900;10.774;2022-08-16T01:13:14;5.53;;;3.95;;
39502;SDS011;26970;49.900;10.774;2022-08-16T01:15:44;8.90;;;3.65;;
39502;SDS011;26970;49.900;10.774;2022-08-16T01:18:14;4.65;;;3.20;;
39502;SDS011;26970;49.900;10.774;2022-08-16T01:20:54;5.72;;;3.53;;
39502;SDS011;26970;49.900;10.774;2022-08-16T01:23:28;6.72;;;3.40;;
39502;SDS011;26970;49.900;10.774;2022-08-16T01:26:00;6.13;;;3.55;;
39502;SDS011;26970;49.900;10.774;2022-08-16T01:28:26;7.35;;;5.88;;
39502;SDS011;26970;49.900;10.774;2022-08-16T01:30:53;7.10;;;5.68;;
39502;SDS011;26970;49.900;10.774;2022-08-16T01:33:21;9.10;;;6.40;;
39502;SDS011;26970;49.900;10.774;2022-08-16T01:35:53;9.55;;;7.22;;
39502;SDS011;26970;49.900;10.774;2022-08-16T01:40:48;10.35;;;8.20;;
39502;SDS011;26970;49.900;10.774;2022-08-16T01:43:16;12.20;;;7.97;;
39502;SDS011;26970;49.900;10.774;2022-08-16T01:45:43;10.73;;;6.40;;
39502;SDS011;26970;49.900;10.774;2022-08-16T01:48:09;8.63;;;6.72;;
39502;SDS011;26970;49.900;10.774;2022-08-16T01:50:35;8.70;;;6.20;;
39502;SDS011;26970;49.900;10.774;2022-08-16T01:53:02;7.13;;;5.03;;
39502;SDS011;26970;49.900;10.774;2022-08-16T01:55:28;6.07;;;4.47;;
39502;SDS011;26970;49.900;10.774;2022-08-16T01:57:54;5.88;;;4.28;;
39502;SDS011;26970;49.900;10.774;2022-08-16T02:00:19;5.47;;;4.20;;
39502;SDS011;26970;49.900;10.774;2022-08-16T02:02:45;7.68;;;4.07;;
39502;SDS011;26970;49.900;10.774;2022-08-16T02:05:11;5.10;;;3.30;;
39502;SDS011;26970;49.900;10.774;2022-08-16T02:07:37;6.15;;;3.67;;
39502;SDS011;26970;49.900;10.774;2022-08-16T02:10:07;5.80;;;3.47;;
39502;SDS011;26970;49.900;10.774;2022-08-16T02:12:34;7.18;;;2.92;;
39502;SDS011;26970;49.900;10.774;2022-08-16T02:15:00;6.63;;;3.20;;
39502;SDS011;26970;49.900;10.774;2022-08-16T02:17:25;5.07;;;3.15;;
39502;SDS011;26970;49.900;10.774;2022-08-16T02:19:51;6.43;;;2.85;;
39502;SDS011;26970;49.900;10.774;2022-08-16T02:22:19;4.30;;;3.05;;
39502;SDS011;26970;49.900;10.774;2022-08-16T02:24:47;5.20;;;2.83;;
39502;SDS011;26970;49.900;10.774;2022-08-16T02:27:14;4.68;;;3.00;;
39502;SDS011;26970;49.900;10.774;2022-08-16T02:29:41;4.32;;;3.10;;
39502;SDS011;26970;49.900;10.774;2022-08-16T02:32:08;3.88;;;2.75;;
39502;SDS011;26970;49.900;10.774;2022-08-16T02:34:35;5.90;;;2.88;;
39502;SDS011;26970;49.900;10.774;2022-08-16T02:37:01;5.65;;;3.22;;
39502;SDS011;26970;49.900;10.774;2022-08-16T02:39:26;5.28;;;3.42;;
39502;SDS011;26970;49.900;10.774;2022-08-16T02:41:52;4.45;;;2.95;;
39502;SDS011;26970;49.900;10.774;2022-08-16T02:44:18;4.38;;;2.78;;
39502;SDS011;26970;49.900;10.774;2022-08-16T02:46:44;4.97;;;3.20;;
39502;SDS011;26970;49.900;10.774;2022-08-16T02:49:10;5.72;;;3.40;;
39502;SDS011;26970;49.900;10.774;2022-08-16T02:51:36;5.13;;;2.70;;
39502;SDS011;26970;49.900;10.774;2022-08-16T02:54:07;4.45;;;2.80;;
39502;SDS011;26970;49.900;10.774;2022-08-16T02:56:34;6.45;;;3.47;;
39502;SDS011;26970;49.900;10.774;2022-08-16T02:58:59;5.00;;;3.10;;
39502;SDS011;26970;49.900;10.774;2022-08-16T03:01:27;5.43;;;2.80;;
39502;SDS011;26970;49.900;10.774;2022-08-16T03:03:55;5.38;;;3.10;;
39502;SDS011;26970;49.900;10.774;2022-08-16T03:06:23;5.00;;;2.88;;
39502;SDS011;26970;49.900;10.774;2022-08-16T03:08:50;6.70;;;3.45;;
39502;SDS011;26970;49.900;10.774;2022-08-16T03:11:16;5.28;;;2.90;;
39502;SDS011;26970;49.900;10.774;2022-08-16T03:13:45;6.60;;;3.28;;
39502;SDS011;26970;49.900;10.774;2022-08-16T03:16:13;6.30;;;3.40;;
39502;SDS011;26970;49.900;10.774;2022-08-16T03:18:39;5.57;;;3.05;;
39502;SDS011;26970;49.900;10.774;2022-08-16T03:21:06;7.53;;;3.47;;
39502;SDS011;26970;49.900;10.774;2022-08-16T03:23:32;6.25;;;3.40;;
39502;SDS011;26970;49.900;10.774;2022-08-16T03:25:59;6.68;;;3.60;;
39502;SDS011;26970;49.900;10.774;2022-08-16T03:28:25;6.93;;;3.38;;
39502;SDS011;26970;49.900;10.774;2022-08-16T03:30:51;5.38;;;3.22;;
39502;SDS011;26970;49.900;10.774;2022-08-16T03:33:17;5.75;;;3.40;;
39502;SDS011;26970;49.900;10.774;2022-08-16T03:35:42;5.47;;;3.65;;
39502;SDS011;26970;49.900;10.774;2022-08-16T03:38:10;24.27;;;4.10;;
39502;SDS011;26970;49.900;10.774;2022-08-16T03:40:38;67.05;;;8.15;;
39502;SDS011;26970;49.900;10.774;2022-08-16T03:43:05;48.55;;;5.40;;
39502;SDS011;26970;49.900;10.774;2022-08-16T03:45:33;61.08;;;5.18;;
39502;SDS011;26970;49.900;10.774;2022-08-16T03:47:59;71.35;;;6.50;;
39502;SDS011;26970;49.900;10.774;2022-08-16T03:50:26;45.17;;;5.80;;
39502;SDS011;26970;49.900;10.774;2022-08-16T03:52:53;50.88;;;4.97;;
39502;SDS011;26970;49.900;10.774;2022-08-16T03:55:19;48.85;;;5.10;;
39502;SDS011;26970;49.900;10.774;2022-08-16T03:57:44;49.80;;;5.07;;
39502;SDS011;26970;49.900;10.774;2022-08-16T04:00:12;33.63;;;4.55;;
39502;SDS011;26970;49.900;10.774;2022-08-16T04:02:41;63.70;;;6.05;;
39502;SDS011;26970;49.900;10.774;2022-08-16T04:05:07;28.52;;;4.57;;
39502;SDS011;26970;49.900;10.774;2022-08-16T04:07:34;11.55;;;3.60;;
39502;SDS011;26970;49.900;10.774;2022-08-16T04:10:00;12.63;;;3.65;;
39502;SDS011;26970;49.900;10.774;2022-08-16T04:12:25;11.48;;;3.85;;
39502;SDS011;26970;49.900;10.774;2022-08-16T04:14:51;17.20;;;3.92;;
39502;SDS011;26970;49.900;10.774;2022-08-16T04:17:17;28.67;;;5.40;;
39502;SDS011;26970;49.900;10.774;2022-08-16T04:19:42;28.52;;;4.30;;
39502;SDS011;26970;49.900;10.774;2022-08-16T04:22:11;21.52;;;4.35;;
39502;SDS011;26970;49.900;10.774;2022-08-16T04:24:37;20.40;;;3.80;;
39502;SDS011;26970;49.900;10.774;2022-08-16T04:27:03;9.95;;;3.75;;
39502;SDS011;26970;49.900;10.774;2022-08-16T04:29:29;12.10;;;4.13;;
39502;SDS011;26970;49.900;10.774;2022-08-16T04:31:55;10.23;;;4.28;;
39502;SDS011;26970;49.900;10.774;2022-08-16T04:34:21;12.45;;;4.22;;
39502;SDS011;26970;49.900;10.774;2022-08-16T04:36:48;12.75;;;4.20;;
39502;SDS011;26970;49.900;10.774;2022-08-16T04:39:13;7.63;;;3.63;;
39502;SDS011;26970;49.900;10.774;2022-08-16T04:41:39;8.00;;;3.80;;
39502;SDS011;26970;49.900;10.774;2022-08-16T04:44:05;10.43;;;3.70;;
39502;SDS011;26970;49.900;10.774;2022-08-16T04:46:31;6.10;;;3.30;;
39502;SDS011;26970;49.900;10.774;2022-08-16T04:48:56;9.00;;;3.75;;
39502;SDS011;26970;49.900;10.774;2022-08-16T04:51:23;8.00;;;3.50;;
39502;SDS011;26970;49.900;10.774;2022-08-16T04:53:49;21.30;;;4.05;;
39502;SDS011;26970;49.900;10.774;2022-08-16T04:56:15;9.80;;;4.00;;
39502;SDS011;26970;49.900;10.774;2022-08-16T04:58:42;17.48;;;3.83;;
39502;SDS011;26970;49.900;10.774;2022-08-16T05:01:08;24.05;;;5.10;;
39502;SDS011;26970;49.900;10.774;2022-08-16T05:03:33;68.47;;;6.03;;
39502;SDS011;26970;49.900;10.774;2022-08-16T05:05:59;77.28;;;6.63;;
39502;SDS011;26970;49.900;10.774;2022-08-16T05:08:25;72.25;;;6.85;;
39502;SDS011;26970;49.900;10.774;2022-08-16T05:10:52;42.67;;;5.60;;
39502;SDS011;26970;49.900;10.774;2022-08-16T05:13:18;7.93;;;4.00;;
39502;SDS011;26970;49.900;10.774;2022-08-16T05:15:44;7.43;;;3.75;;
39502;SDS011;26970;49.900;10.774;2022-08-16T05:18:11;8.30;;;3.53;;
39502;SDS011;26970;49.900;10.774;2022-08-16T05:20:37;6.43;;;3.60;;
39502;SDS011;26970;49.900;10.774;2022-08-16T05:23:03;5.03;;;3.63;;
39502;SDS011;26970;49.900;10.774;2022-08-16T05:25:29;6.85;;;3.95;;
39502;SDS011;26970;49.900;10.774;2022-08-16T05:27:54;40.60;;;5.60;;
39502;SDS011;26970;49.900;10.774;2022-08-16T05:30:21;43.38;;;5.72;;
39502;SDS011;26970;49.900;10.774;2022-08-16T05:32:47;39.00;;;5.20;;
39502;SDS011;26970;49.900;10.774;2022-08-16T05:35:13;60.97;;;6.43;;
39502;SDS011;26970;49.900;10.774;2022-08-16T05:37:39;74.68;;;7.63;;
39502;SDS011;26970;49.900;10.774;2022-08-16T05:40:06;14.95;;;4.15;;
39502;SDS011;26970;49.900;10.774;2022-08-16T05:42:32;11.98;;;4.15;;
39502;SDS011;26970;49.900;10.774;2022-08-16T05:44:58;8.10;;;3.83;;
39502;SDS011;26970;49.900;10.774;2022-08-16T05:47:25;6.45;;;3.88;;
39502;SDS011;26970;49.900;10.774;2022-08-16T05:49:50;7.68;;;3.78;;
39502;SDS011;26970;49.900;10.774;2022-08-16T05:52:17;5.40;;;4.07;;
39502;SDS011;26970;49.900;10.774;2022-08-16T05:54:43;6.60;;;3.78;;
39502;SDS011;26970;49.900;10.774;2022-08-16T05:57:09;6.13;;;3.90;;
39502;SDS011;26970;49.900;10.774;2022-08-16T05:59:35;5.90;;;3.90;;
39502;SDS011;26970;49.900;10.774;2022-08-16T06:02:01;8.98;;;4.10;;
39502;SDS011;26970;49.900;10.774;2022-08-16T06:04:27;5.35;;;4.05;;
39502;SDS011;26970;49.900;10.774;2022-08-16T06:06:52;5.85;;;3.97;;
39502;SDS011;26970;49.900;10.774;2022-08-16T06:09:18;6.20;;;4.00;;
39502;SDS011;26970;49.900;10.774;2022-08-16T06:11:43;5.00;;;3.55;;
39502;SDS011;26970;49.900;10.774;2022-08-16T06:14:10;6.13;;;3.45;;
39502;SDS011;26970;49.900;10.774;2022-08-16T06:16:36;5.53;;;3.63;;
39502;SDS011;26970;49.900;10.774;2022-08-16T06:19:01;6.32;;;3.80;;
39502;SDS011;26970;49.900;10.774;2022-08-16T06:21:28;7.05;;;3.80;;
39502;SDS011;26970;49.900;10.774;2022-08-16T06:23:53;8.20;;;4.00;;
39502;SDS011;26970;49.900;10.774;2022-08-16T06:26:19;6.05;;;4.00;;
39502;SDS011;26970;49.900;10.774;2022-08-16T06:28:45;7.28;;;3.83;;
39502;SDS011;26970;49.900;10.774;2022-08-16T06:31:11;5.25;;;3.80;;
39502;SDS011;26970;49.900;10.774;2022-08-16T06:33:38;4.93;;;3.22;;
39502;SDS011;26970;49.900;10.774;2022-08-16T06:36:04;5.70;;;3.78;;
39502;SDS011;26970;49.900;10.774;2022-08-16T06:38:32;5.45;;;3.70;;
39502;SDS011;26970;49.900;10.774;2022-08-16T06:40:59;5.78;;;3.70;;
39502;SDS011;26970;49.900;10.774;2022-08-16T06:43:28;6.05;;;3.75;;
39502;SDS011;26970;49.900;10.774;2022-08-16T06:45:54;5.72;;;3.70;;
39502;SDS011;26970;49.900;10.774;2022-08-16T06:48:20;5.57;;;3.58;;
39502;SDS011;26970;49.900;10.774;2022-08-16T06:50:46;6.30;;;3.47;;
39502;SDS011;26970;49.900;10.774;2022-08-16T06:53:14;5.28;;;3.63;;
39502;SDS011;26970;49.900;10.774;2022-08-16T06:55:40;7.47;;;3.53;;
39502;SDS011;26970;49.900;10.774;2022-08-16T06:58:07;5.78;;;3.50;;
39502;SDS011;26970;49.900;10.774;2022-08-16T07:00:32;6.22;;;3.72;;
39502;SDS011;26970;49.900;10.774;2022-08-16T07:02:58;5.72;;;3.72;;
39502;SDS011;26970;49.900;10.774;2022-08-16T07:05:24;7.55;;;4.20;;
39502;SDS011;26970;49.900;10.774;2022-08-16T07:07:49;5.68;;;3.50;;
39502;SDS011;26970;49.900;10.774;2022-08-16T07:10:16;6.68;;;3.97;;
39502;SDS011;26970;49.900;10.774;2022-08-16T07:12:43;7.22;;;3.38;;
39502;SDS011;26970;49.900;10.774;2022-08-16T07:15:09;6.68;;;3.47;;
39502;SDS011;26970;49.900;10.774;2022-08-16T07:17:35;6.40;;;3.75;;
39502;SDS011;26970;49.900;10.774;2022-08-16T07:20:03;5.30;;;3.60;;
39502;SDS011;26970;49.900;10.774;2022-08-16T07:22:31;6.00;;;3.73;;
39502;SDS011;26970;49.900;10.774;2022-08-16T07:24:57;4.80;;;3.50;;
39502;SDS011;26970;49.900;10.774;2022-08-16T07:27:23;7.82;;;3.85;;
39502;SDS011;26970;49.900;10.774;2022-08-16T07:29:48;8.30;;;3.72;;
39502;SDS011;26970;49.900;10.774;2022-08-16T07:32:14;5.97;;;3.05;;
39502;SDS011;26970;49.900;10.774;2022-08-16T07:34:40;5.50;;;3.30;;
39502;SDS011;26970;49.900;10.774;2022-08-16T07:37:06;7.93;;;3.50;;
39502;SDS011;26970;49.900;10.774;2022-08-16T07:39:33;5.38;;;3.33;;
39502;SDS011;26970;49.900;10.774;2022-08-16T07:41:59;5.25;;;3.50;;
39502;SDS011;26970;49.900;10.774;2022-08-16T07:44:24;5.03;;;3.47;;
39502;SDS011;26970;49.900;10.774;2022-08-16T07:46:50;6.22;;;3.40;;
39502;SDS011;26970;49.900;10.774;2022-08-16T07:49:16;6.25;;;3.72;;
39502;SDS011;26970;49.900;10.774;2022-08-16T07:51:41;6.45;;;3.70;;
39502;SDS011;26970;49.900;10.774;2022-08-16T07:54:08;6.82;;;3.70;;
39502;SDS011;26970;49.900;10.774;2022-08-16T07:56:34;7.00;;;3.63;;
39502;SDS011;26970;49.900;10.774;2022-08-16T07:59:00;6.72;;;3.40;;
39502;SDS011;26970;49.900;10.774;2022-08-16T08:01:26;7.00;;;3.72;;
39502;SDS011;26970;49.900;10.774;2022-08-16T08:03:54;5.47;;;3.40;;
39502;SDS011;26970;49.900;10.774;2022-08-16T08:06:25;6.78;;;3.50;;
39502;SDS011;26970;49.900;10.774;2022-08-16T08:08:53;5.28;;;3.60;;
39502;SDS011;26970;49.900;10.774;2022-08-16T08:11:20;6.40;;;3.47;;
39502;SDS011;26970;49.900;10.774;2022-08-16T08:13:48;7.20;;;4.00;;
39502;SDS011;26970;49.900;10.774;2022-08-16T08:16:14;6.43;;;3.55;;
39502;SDS011;26970;49.900;10.774;2022-08-16T08:18:39;5.32;;;3.53;;
39502;SDS011;26970;49.900;10.774;2022-08-16T08:21:05;5.00;;;3.33;;
39502;SDS011;26970;49.900;10.774;2022-08-16T08:23:33;4.82;;;3.22;;
39502;SDS011;26970;49.900;10.774;2022-08-16T08:26:01;5.10;;;3.45;;
39502;SDS011;26970;49.900;10.774;2022-08-16T08:28:28;5.28;;;3.70;;
39502;SDS011;26970;49.900;10.774;2022-08-16T08:30:56;5.50;;;3.33;;
39502;SDS011;26970;49.900;10.774;2022-08-16T08:33:22;5.28;;;3.30;;
39502;SDS011;26970;49.900;10.774;2022-08-16T08:35:48;6.43;;;3.70;;
39502;SDS011;26970;49.900;10.774;2022-08-16T08:38:13;9.00;;;3.58;;
39502;SDS011;26970;49.900;10.774;2022-08-16T08:40:40;4.68;;;3.20;;
39502;SDS011;26970;49.900;10.774;2022-08-16T08:43:08;6.05;;;3.65;;
39502;SDS011;26970;49.900;10.774;2022-08-16T08:45:36;4.72;;;3.28;;
39502;SDS011;26970;49.900;10.774;2022-08-16T08:48:03;7.32;;;3.30;;
39502;SDS011;26970;49.900;10.774;2022-08-16T08:50:28;6.32;;;3.42;;
39502;SDS011;26970;49.900;10.774;2022-08-16T08:52:54;5.43;;;3.55;;
39502;SDS011;26970;49.900;10.774;2022-08-16T08:55:21;5.47;;;3.33;;
39502;SDS011;26970;49.900;10.774;2022-08-16T08:57:47;6.32;;;3.30;;
39502;SDS011;26970;49.900;10.774;2022-08-16T09:00:14;6.65;;;3.30;;
39502;SDS011;26970;49.900;10.774;2022-08-16T09:02:42;7.43;;;3.67;;
39502;SDS011;26970;49.900;10.774;2022-08-16T09:05:09;5.25;;;3.50;;
39502;SDS011;26970;49.900;10.774;2022-08-16T09:07:36;5.97;;;3.30;;
39502;SDS011;26970;49.900;10.774;2022-08-16T09:10:03;5.93;;;3.83;;
39502;SDS011;26970;49.900;10.774;2022-08-16T09:12:30;9.15;;;3.55;;
39502;SDS011;26970;49.900;10.774;2022-08-16T09:14:56;5.60;;;3.25;;
39502;SDS011;26970;49.900;10.774;2022-08-16T09:17:22;5.22;;;3.40;;
39502;SDS011;26970;49.900;10.774;2022-08-16T09:19:48;6.65;;;3.22;;
39502;SDS011;26970;49.900;10.774;2022-08-16T09:22:15;5.05;;;3.13;;
39502;SDS011;26970;49.900;10.774;2022-08-16T09:24:41;4.47;;;3.03;;
39502;SDS011;26970;49.900;10.774;2022-08-16T09:27:06;6.30;;;3.50;;
39502;SDS011;26970;49.900;10.774;2022-08-16T09:29:32;6.80;;;3.22;;
39502;SDS011;26970;49.900;10.774;2022-08-16T09:31:57;6.22;;;3.50;;
39502;SDS011;26970;49.900;10.774;2022-08-16T09:34:23;5.72;;;3.67;;
39502;SDS011;26970;49.900;10.774;2022-08-16T09:36:49;6.82;;;3.50;;
39502;SDS011;26970;49.900;10.774;2022-08-16T09:39:14;5.10;;;3.00;;
39502;SDS011;26970;49.900;10.774;2022-08-16T09:41:42;13.30;;;4.28;;
39502;SDS011;26970;49.900;10.774;2022-08-16T09:44:08;6.60;;;3.45;;
39502;SDS011;26970;49.900;10.774;2022-08-16T09:46:34;6.75;;;4.28;;
39502;SDS011;26970;49.900;10.774;2022-08-16T09:48:59;8.77;;;3.67;;
39502;SDS011;26970;49.900;10.774;2022-08-16T09:51:25;6.13;;;3.10;;
39502;SDS011;26970;49.900;10.774;2022-08-16T09:53:52;4.68;;;3.05;;
39502;SDS011;26970;49.900;10.774;2022-08-16T09:56:28;5.28;;;3.22;;
39502;SDS011;26970;49.900;10.774;2022-08-16T09:58:56;5.72;;;2.95;;
39502;SDS011;26970;49.900;10.774;2022-08-16T10:01:23;4.40;;;3.10;;
39502;SDS011;26970;49.900;10.774;2022-08-16T10:03:50;5.13;;;3.30;;
39502;SDS011;26970;49.900;10.774;2022-08-16T10:06:17;4.97;;;3.00;;
39502;SDS011;26970;49.900;10.774;2022-08-16T10:08:44;4.85;;;3.08;;
39502;SDS011;26970;49.900;10.774;2022-08-16T10:11:10;6.57;;;3.35;;
39502;SDS011;26970;49.900;10.774;2022-08-16T10:13:54;5.32;;;3.20;;
39502;SDS011;26970;49.900;10.774;2022-08-16T10:16:20;4.78;;;3.13;;
39502;SDS011;26970;49.900;10.774;2022-08-16T10:18:46;6.00;;;3.38;;
39502;SDS011;26970;49.900;10.774;2022-08-16T10:21:11;6.68;;;3.40;;
39502;SDS011;26970;49.900;10.774;2022-08-16T10:23:41;4.47;;;2.92;;
39502;SDS011;26970;49.900;10.774;2022-08-16T10:26:07;6.97;;;3.03;;
39502;SDS011;26970;49.900;10.774;2022-08-16T10:28:33;12.55;;;2.92;;
39502;SDS011;26970;49.900;10.774;2022-08-16T10:30:59;5.93;;;3.03;;
39502;SDS011;26970;49.900;10.774;2022-08-16T10:33:26;8.35;;;3.05;;
39502;SDS011;26970;49.900;10.774;2022-08-16T10:35:52;5.60;;;2.78;;
39502;SDS011;26970;49.900;10.774;2022-08-16T10:38:18;4.32;;;2.90;;
39502;SDS011;26970;49.900;10.774;2022-08-16T10:40:44;4.63;;;2.90;;
39502;SDS011;26970;49.900;10.774;2022-08-16T10:43:10;5.68;;;3.20;;
39502;SDS011;26970;49.900;10.774;2022-08-16T10:45:36;5.97;;;2.90;;
39502;SDS011;26970;49.900;10.774;2022-08-16T10:48:02;6.35;;;2.88;;
39502;SDS011;26970;49.900;10.774;2022-08-16T10:50:30;5.07;;;2.95;;
39502;SDS011;26970;49.900;10.774;2022-08-16T10:52:56;5.25;;;3.25;;
39502;SDS011;26970;49.900;10.774;2022-08-16T10:55:22;5.60;;;3.17;;
39502;SDS011;26970;49.900;10.774;2022-08-16T10:57:48;5.32;;;3.28;;
39502;SDS011;26970;49.900;10.774;2022-08-16T11:00:15;5.43;;;2.92;;
39502;SDS011;26970;49.900;10.774;2022-08-16T11:02:42;5.25;;;3.00;;
39502;SDS011;26970;49.900;10.774;2022-08-16T11:05:09;6.18;;;3.10;;
39502;SDS011;26970;49.900;10.774;2022-08-16T11:07:41;4.60;;;2.85;;
39502;SDS011;26970;49.900;10.774;2022-08-16T11:10:13;7.20;;;3.20;;
39502;SDS011;26970;49.900;10.774;2022-08-16T11:12:41;4.68;;;3.15;;
39502;SDS011;26970;49.900;10.774;2022-08-16T11:15:06;5.95;;;2.95;;
39502;SDS011;26970;49.900;10.774;2022-08-16T11:17:32;4.25;;;2.90;;
39502;SDS011;26970;49.900;10.774;2022-08-16T11:19:58;5.70;;;3.28;;
39502;SDS011;26970;49.900;10.774;2022-08-16T11:22:23;6.32;;;2.80;;
39502;SDS011;26970;49.900;10.774;2022-08-16T11:24:50;7.55;;;3.13;;
39502;SDS011;26970;49.900;10.774;2022-08-16T11:27:17;4.97;;;3.08;;
39502;SDS011;26970;49.900;10.774;2022-08-16T11:29:44;4.22;;;2.92;;
39502;SDS011;26970;49.900;10.774;2022-08-16T11:32:10;5.20;;;3.13;;
39502;SDS011;26970;49.900;10.774;2022-08-16T11:34:35;4.15;;;2.70;;
39502;SDS011;26970;49.900;10.774;2022-08-16T11:37:02;4.43;;;2.80;;
39502;SDS011;26970;49.900;10.774;2022-08-16T11:39:28;4.60;;;2.80;;
39502;SDS011;26970;49.900;10.774;2022-08-16T11:41:54;7.82;;;2.70;;
39502;SDS011;26970;49.900;10.774;2022-08-16T11:44:21;7.97;;;3.10;;
39502;SDS011;26970;49.900;10.774;2022-08-16T11:46:47;4.85;;;3.17;;
39502;SDS011;26970;49.900;10.774;2022-08-16T11:49:13;7.07;;;2.90;;
39502;SDS011;26970;49.900;10.774;2022-08-16T11:51:38;4.22;;;2.90;;
39502;SDS011;26970;49.900;10.774;2022-08-16T11:54:07;3.95;;;2.78;;
39502;SDS011;26970;49.900;10.774;2022-08-16T11:56:33;5.55;;;2.80;;
39502;SDS011;26970;49.900;10.774;2022-08-16T11:58:59;4.93;;;3.05;;
39502;SDS011;26970;49.900;10.774;2022-08-16T12:01:25;5.70;;;3.00;;
39502;SDS011;26970;49.900;10.774;2022-08-16T12:03:51;3.83;;;3.00;;
39502;SDS011;26970;49.900;10.774;2022-08-16T12:06:17;7.95;;;2.95;;
39502;SDS011;26970;49.900;10.774;2022-08-16T12:08:44;5.90;;;2.95;;
39502;SDS011;26970;49.900;10.774;2022-08-16T12:11:11;7.60;;;3.03;;
39502;SDS011;26970;49.900;10.774;2022-08-16T12:13:37;7.18;;;3.10;;
39502;SDS011;26970;49.900;10.774;2022-08-16T12:16:04;5.82;;;3.00;;
39502;SDS011;26970;49.900;10.774;2022-08-16T12:18:32;6.75;;;3.17;;
39502;SDS011;26970;49.900;10.774;2022-08-16T12:20:58;5.10;;;2.90;;
39502;SDS011;26970;49.900;10.774;2022-08-16T12:23:24;5.45;;;3.30;;
39502;SDS011;26970;49.900;10.774;2022-08-16T12:25:50;5.57;;;3.08;;
39502;SDS011;26970;49.900;10.774;2022-08-16T12:28:15;8.13;;;3.50;;
39502;SDS011;26970;49.900;10.774;2022-08-16T12:30:43;5.53;;;3.35;;
39502;SDS011;26970;49.900;10.774;2022-08-16T12:33:11;4.90;;;2.92;;
39502;SDS011;26970;49.900;10.774;2022-08-16T12:35:40;5.20;;;3.45;;
39502;SDS011;26970;49.900;10.774;2022-08-16T12:38:07;4.40;;;3.05;;
39502;SDS011;26970;49.900;10.774;2022-08-16T12:40:35;8.18;;;3.50;;
39502;SDS011;26970;49.900;10.774;2022-08-16T12:43:03;5.68;;;3.40;;
39502;SDS011;26970;49.900;10.774;2022-08-16T12:45:35;6.50;;;3.17;;
39502;SDS011;26970;49.900;10.774;2022-08-16T12:48:05;5.32;;;3.05;;
39502;SDS011;26970;49.900;10.774;2022-08-16T12:50:50;5.57;;;2.92;;
39502;SDS011;26970;49.900;10.774;2022-08-16T12:53:17;7.47;;;3.50;;
39502;SDS011;26970;49.900;10.774;2022-08-16T12:55:44;6.90;;;3.25;;
39502;SDS011;26970;49.900;10.774;2022-08-16T12:58:10;6.32;;;3.33;;
39502;SDS011;26970;49.900;10.774;2022-08-16T13:00:37;5.55;;;2.97;;
39502;SDS011;26970;49.900;10.774;2022-08-16T13:03:04;6.50;;;3.13;;
39502;SDS011;26970;49.900;10.774;2022-08-16T13:05:30;7.28;;;3.30;;
39502;SDS011;26970;49.900;10.774;2022-08-16T13:07:56;6.00;;;3.30;;
39502;SDS011;26970;49.900;10.774;2022-08-16T13:10:22;5.38;;;3.20;;
39502;SDS011;26970;49.900;10.774;2022-08-16T13:12:50;4.68;;;3.03;;
39502;SDS011;26970;49.900;10.774;2022-08-16T13:15:18;5.45;;;3.47;;
39502;SDS011;26970;49.900;10.774;2022-08-16T13:17:45;6.82;;;3.22;;
39502;SDS011;26970;49.900;10.774;2022-08-16T13:20:14;6.40;;;3.15;;
39502;SDS011;26970;49.900;10.774;2022-08-16T13:22:46;4.03;;;3.08;;
39502;SDS011;26970;49.900;10.774;2022-08-16T13:25:15;6.25;;;3.45;;
39502;SDS011;26970;49.900;10.774;2022-08-16T13:27:44;5.67;;;3.07;;
39502;SDS011;26970;49.900;10.774;2022-08-16T13:30:10;12.25;;;3.20;;
39502;SDS011;26970;49.900;10.774;2022-08-16T13:32:36;58.42;;;6.50;;
39502;SDS011;26970;49.900;10.774;2022-08-16T13:35:02;8.40;;;4.05;;
39502;SDS011;26970;49.900;10.774;2022-08-16T13:37:29;5.75;;;3.25;;
39502;SDS011;26970;49.900;10.774;2022-08-16T13:39:54;5.85;;;3.10;;
39502;SDS011;26970;49.900;10.774;2022-08-16T13:42:20;6.47;;;3.30;;
39502;SDS011;26970;49.900;10.774;2022-08-16T13:44:46;6.45;;;3.25;;
39502;SDS011;26970;49.900;10.774;2022-08-16T13:47:12;6.45;;;3.20;;
39502;SDS011;26970;49.900;10.774;2022-08-16T13:49:38;6.07;;;2.90;;
39502;SDS011;26970;49.900;10.774;2022-08-16T13:52:05;8.05;;;3.33;;
39502;SDS011;26970;49.900;10.774;2022-08-16T13:54:32;4.63;;;2.65;;
39502;SDS011;26970;49.900;10.774;2022-08-16T13:56:58;8.80;;;3.40;;
39502;SDS011;26970;49.900;10.774;2022-08-16T13:59:24;4.75;;;2.60;;
39502;SDS011;26970;49.900;10.774;2022-08-16T14:01:50;6.60;;;3.10;;
39502;SDS011;26970;49.900;10.774;2022-08-16T14:04:18;5.60;;;3.08;;
39502;SDS011;26970;49.900;10.774;2022-08-16T14:06:43;6.28;;;2.90;;
39502;SDS011;26970;49.900;10.774;2022-08-16T14:09:09;4.93;;;3.00;;
39502;SDS011;26970;49.900;10.774;2022-08-16T14:11:35;6.45;;;3.25;;
39502;SDS011;26970;49.900;10.774;2022-08-16T14:14:01;4.78;;;2.92;;
39502;SDS011;26970;49.900;10.774;2022-08-16T14:16:27;4.60;;;2.90;;
39502;SDS011;26970;49.900;10.774;2022-08-16T14:18:53;4.57;;;2.70;;
39502;SDS011;26970;49.900;10.774;2022-08-16T14:21:19;4.13;;;2.78;;
39502;SDS011;26970;49.900;10.774;2022-08-16T14:23:46;8.65;;;2.70;;
39502;SDS011;26970;49.900;10.774;2022-08-16T14:26:11;7.15;;;2.85;;
39502;SDS011;26970;49.900;10.774;2022-08-16T14:28:38;7.63;;;2.50;;
39502;SDS011;26970;49.900;10.774;2022-08-16T14:31:03;5.85;;;2.70;;
39502;SDS011;26970;49.900;10.774;2022-08-16T14:33:30;5.30;;;3.10;;